Snow/Ice From: 17-12-2018 09:00 Until: 17:00 warning for: Snow/Ice Level: Yellow info button
suomi:
Liikennesää: Ajokeli muuttuu huonoksi päivällä lumisateen vuoksi.

svenska:
Trafikvädret: Väglaget blir dåligt på dagen p.g.a. snöfall.

english:
Traffic weather warning: Bad road conditions are expected at noon and in the afternoon because of snow. 


Thunder radar more information blitzortung!


Löydät sääaseman tiedot myös:

European Weather Network

Finland Weather Exchange

Weather Underground

AWEKAS



Weather Underground säähistoriasivu

Päivittäin yhteenveto Kesäkuu 27, 2017 Yksiköt:  Metriset    Englantilaiset   Molemmat
« Edellinen Päivä
Seuraava Päivä »
Päivittäin Viikoittain Kuukausittain Vuosittain Mukautettu
  Korkea: Matala: Keskiarvo:
Lämpötila: -17.8 °C -12.9 °C -11.3 °C
Kastepiste: -17.8 °C -13.4 °C -12.1 °C
Kosteus: Humidity % 75 % 90 %
Tuulen nopeus: 0 km/h 0 km/h 2.4 km/h
Tuulenpuuska: 0 km/h - -
Tuuli:- - West
Ilmanpaine: 0 hPa 33534.9 hPa -
Sade: 154.94 mm    
Historical Graphs
 
 
Taulukkotiedot Kesäkuu 27, 2017
Aika Lämpötila Kastepiste Ilmanpaine Tuuli Tuulen nopeus Tuulenpuuska Kosteus Sademäärä (tunneittain)
-17.8 °C -17.8 °C 0 hPa Calm     Humidity % 0 mm
00:15 -11.7 °C -12.9 °C 33534.9 hPa Calm   5.1 km/h 87 % 0 mm
00:30 -11.8 °C -12.9 °C 33534.9 hPa Calm   2.6 km/h 88 % 0 mm
00:45 -11.9 °C -12.9 °C 33545.1 hPa Calm     89 % 0 mm
01:00 -12 °C -12.8 °C 33545.1 hPa Calm     90 % 0 mm
01:15 -12 °C -12.8 °C 33545.1 hPa Calm     90 % 0 mm
01:30 -12.1 °C -12.8 °C 33558.6 hPa Calm     91 % 0 mm
01:45 -12.1 °C -12.9 °C 33558.6 hPa Calm     91 % 0 mm
02:00 -12.2 °C -12.9 °C 33568.8 hPa Calm     91 % 0 mm
02:15 -12.3 °C -13.1 °C 33568.8 hPa Calm     91 % 0 mm
02:30 -12.4 °C -13.1 °C 33582.3 hPa Calm     92 % 0 mm
02:45 -12.5 °C -13.2 °C 33582.3 hPa Calm     92 % 0 mm
03:00 -12.6 °C -13.2 °C 33582.3 hPa Calm     93 % 0 mm
03:15 -12.7 °C -13.3 °C 33582.3 hPa Calm     94 % 0 mm
03:30 -12.7 °C -13.2 °C 33592.5 hPa Calm     94 % 0 mm
03:45 -12.7 °C -13.3 °C 33592.5 hPa Calm   7.7 km/h 94 % 0 mm
04:00 -12.9 °C -13.4 °C 33602.7 hPa Calm     94 % 0 mm
04:15 -12.9 °C -13.4 °C 33602.7 hPa Calm     94 % 0 mm
04:30 -12.9 °C -13.3 °C 33602.7 hPa Calm   2.6 km/h 95 % 0 mm
04:45 -12.8 °C -13.2 °C 33602.7 hPa Calm   2.6 km/h 96 % 0 mm
05:00 -12.7 °C -13.1 °C 33616.2 hPa Calm     96 % 0 mm
05:15 -12.7 °C -13.1 °C 33616.2 hPa Calm   2.6 km/h 96 % 0 mm
05:30 -12.8 °C -13.1 °C 33616.2 hPa Calm   5.1 km/h 96 % 0 mm
05:45 -12.7 °C -13.1 °C 33626.4 hPa Calm   5.1 km/h 96 % 0 mm
06:00 -12.6 °C -12.8 °C 33626.4 hPa Calm   7.7 km/h 97 % 0 mm
06:15 -12.5 °C -12.8 °C 33626.4 hPa SSW 2.6 km/h 12.9 km/h 96 % 0 mm
06:30 -12.6 °C -12.9 °C 33639.9 hPa SSW 2.6 km/h 12.9 km/h 96 % 0 mm
06:45 -12.4 °C -12.7 °C 33639.9 hPa SSW 2.6 km/h 15.6 km/h 96 % 0 mm
07:00 -12.3 °C -12.7 °C 33639.9 hPa SW 2.6 km/h 12.9 km/h 96 % 0 mm
07:15 -12.3 °C -12.8 °C 33639.9 hPa SW 2.6 km/h 12.9 km/h 94 % 0 mm
07:30 -12.2 °C -12.8 °C 33639.9 hPa Calm   10.3 km/h 93 % 0 mm
07:45 -12.2 °C -12.8 °C 33650.1 hPa SSW 2.6 km/h 10.3 km/h 93 % 0 mm
08:00 -12.1 °C -12.6 °C 33650.1 hPa SSW 2.6 km/h 10.3 km/h 93 % 0 mm
08:15 -11.7 °C -12.4 °C 33650.1 hPa SW 2.6 km/h 12.9 km/h 92 % 0 mm
08:30 -11.6 °C -12.4 °C 33650.1 hPa SW 5.1 km/h 15.6 km/h 90 % 0 mm
08:45 -11.4 °C -12.3 °C 33660.2 hPa SSW 2.6 km/h 15.6 km/h 90 % 0 mm
09:00 -11.3 °C -12.2 °C 33660.2 hPa SSW 5.1 km/h 15.6 km/h 90 % 0 mm
09:15 -11.2 °C -12.2 °C 33660.2 hPa SSW 5.1 km/h 15.6 km/h 89 % 0 mm
09:30 -11.2 °C -12 °C 33673.8 hPa SW 2.6 km/h 18.2 km/h 90 % 0 mm
09:45 -11.2 °C -12 °C 33673.8 hPa SSW 5.1 km/h 15.6 km/h 90 % 0 mm
10:00 -11 °C -11.8 °C 33673.8 hPa Calm   10.3 km/h 91 % 0 mm
10:15 -11 °C -11.8 °C 33683.9 hPa SSW 5.1 km/h 15.6 km/h 91 % 0 mm
10:30 -10.9 °C -11.7 °C 33683.9 hPa SSW 2.6 km/h 15.6 km/h 91 % 0 mm
10:45 -10.8 °C -11.7 °C 33694.1 hPa WSW 2.6 km/h 12.9 km/h 90 % 0 mm
11:00 -10.7 °C -11.6 °C 33694.1 hPa West 2.6 km/h 12.9 km/h 90 % 0 mm
11:15 -10.6 °C -11.6 °C 33694.1 hPa West 5.1 km/h 15.6 km/h 89 % 7.62 mm
11:30 -10.4 °C -11.6 °C 33707.6 hPa West 5.1 km/h 15.6 km/h 87 % 7.62 mm
11:45 -10.2 °C -11.7 °C 33707.6 hPa West 5.1 km/h 23.3 km/h 84 % 7.62 mm
12:00 -10.2 °C -11.6 °C 33707.6 hPa WNW 10.3 km/h 31.1 km/h 85 % 7.62 mm
12:15 -10.2 °C -11.5 °C 33717.8 hPa NW 7.7 km/h 23.3 km/h 86 % 0 mm
12:30 -10.3 °C -11.6 °C 33717.8 hPa WNW 10.3 km/h 28.5 km/h 86 % 0 mm
12:45 -10 °C -11.3 °C 33731.3 hPa NW 5.1 km/h 23.3 km/h 86 % 0 mm
13:00 -10.6 °C -11.7 °C 33731.3 hPa NW 5.1 km/h 18.2 km/h 87 % 7.62 mm
13:15 -10.7 °C -11.6 °C 33741.5 hPa WNW 5.1 km/h 23.3 km/h 90 % 12.7 mm
13:30 -10.6 °C -11.2 °C 33741.5 hPa NW 2.6 km/h 15.6 km/h 93 % 12.7 mm
13:45 -10.7 °C -11.4 °C 33751.6 hPa WNW 2.6 km/h 18.2 km/h 92 % 58.42 mm
14:00 -10.8 °C -11.3 °C 33751.6 hPa NW 2.6 km/h 15.6 km/h 94 % 83.82 mm
14:15 -10.9 °C -11.5 °C 33765.2 hPa WNW 2.6 km/h 12.9 km/h 94 % 91.44 mm
14:30 -10.9 °C -11.3 °C 33775.4 hPa WNW 2.6 km/h 12.9 km/h 95 % 91.44 mm
14:45 -10.6 °C -10.9 °C 33775.4 hPa Calm   10.3 km/h 96 % 38.1 mm
15:00 -10.4 °C -11 °C 33775.4 hPa WNW 5.1 km/h 15.6 km/h 93 % 7.62 mm
15:15 -10 °C -10.7 °C 33788.9 hPa WNW 2.6 km/h 15.6 km/h 92 % 0 mm
15:30 -10.1 °C -10.8 °C 33788.9 hPa Calm   15.6 km/h 92 % 12.7 mm
15:45 -10.4 °C -11 °C 33788.9 hPa Calm   7.7 km/h 93 % 12.7 mm
16:00 -10.4 °C -10.9 °C 33799.1 hPa Calm   7.7 km/h 95 % 20.32 mm
16:15 -10.4 °C -10.9 °C 33799.1 hPa Calm   12.9 km/h 95 % 20.32 mm
16:30 -10.2 °C -10.6 °C 33799.1 hPa NW 2.6 km/h 12.9 km/h 96 % 7.62 mm
16:45 -10.1 °C -10.7 °C 33809.2 hPa Calm   2.6 km/h 93 % 7.62 mm
17:00 -9.9 °C -10.5 °C 33809.2 hPa NW 2.6 km/h 12.9 km/h 94 % 0 mm
17:15 -9.8 °C -10.8 °C 33822.8 hPa WNW 5.1 km/h 18.2 km/h 89 % 0 mm
17:30 -9.9 °C -11 °C 33822.8 hPa NNW 5.1 km/h 15.6 km/h 88 % 0 mm
17:45 -9.8 °C -11.2 °C 33832.9 hPa NW 10.3 km/h 28.5 km/h 84 % 0 mm
18:00 -9.6 °C -11.1 °C 33832.9 hPa NW 5.1 km/h 20.8 km/h 84 % 0 mm
18:15 -9.3 °C -11.1 °C 33832.9 hPa NW 7.7 km/h 28.5 km/h 81 % 0 mm
18:30 -9.2 °C -11.6 °C 33843.1 hPa NW 7.7 km/h 28.5 km/h 75 % 0 mm
18:45 -9.6 °C -12 °C 33843.1 hPa NW 10.3 km/h 33.6 km/h 75 % 0 mm
19:00 -9.8 °C -11.8 °C 33856.6 hPa WNW 5.1 km/h 23.3 km/h 79 % 0 mm
19:15 -9.3 °C -11.4 °C 33856.6 hPa WSW 2.6 km/h 10.3 km/h 78 % 0 mm
19:45 -9.8 °C -11.4 °C 33866.8 hPa WNW 5.1 km/h 18.2 km/h 82 % 0 mm
20:00 -10.4 °C -11.7 °C 33880.3 hPa NW 5.1 km/h 23.3 km/h 86 % 12.7 mm
20:15 -10.6 °C -11.6 °C 33880.3 hPa NW 5.1 km/h 18.2 km/h 89 % 12.7 mm
20:30 -10.7 °C -11.6 °C 33880.3 hPa WNW 2.6 km/h 18.2 km/h 90 % 12.7 mm
20:45 -10.7 °C -11.6 °C 33890.5 hPa WNW 5.1 km/h 20.8 km/h 89 % 12.7 mm
21:00 -10.7 °C -11.6 °C 33890.5 hPa WNW 2.6 km/h 15.6 km/h 91 % 12.7 mm
21:15 -10.8 °C -11.5 °C 33890.5 hPa NW 2.6 km/h 12.9 km/h 92 % 12.7 mm
21:30 -10.9 °C -11.5 °C 33890.5 hPa Calm   10.3 km/h 93 % 12.7 mm
21:45 -10.9 °C -11.5 °C 33900.6 hPa Calm   7.7 km/h 93 % 12.7 mm
22:00 -11 °C -11.6 °C 33914.2 hPa Calm     93 % 0 mm
22:15 -11 °C -11.6 °C 33914.2 hPa Calm   7.7 km/h 93 % 0 mm
22:30 -11.1 °C -11.7 °C 33914.2 hPa Calm   7.7 km/h 92 % 0 mm
22:45 -11.1 °C -11.8 °C 33924.3 hPa WNW 2.6 km/h 10.3 km/h 92 % 0 mm
23:00 -11.2 °C -11.9 °C 33924.3 hPa Calm   7.7 km/h 92 % 0 mm
23:15 -11.3 °C -11.9 °C 33937.9 hPa Calm     93 % 0 mm
23:30 -11.4 °C -12 °C 33937.9 hPa Calm     93 % 0 mm
23:45 -11.5 °C -12.1 °C 33937.9 hPa Calm   10.3 km/h 93 % 0 mm
Esan sääasema
Terveisin Weather Underground - 2.75 mb

Alkuperäinen skripti  Jim McMurry - jmcmurry@mwt.net Sovitettu myös templatelle  Wim van der Kuil - Leuven-Template.eu

Laitteet joita käytämme:

Sääasema
Davis VP2

Sääasemaohjelma
Cumulus

Sääaseman tietokone
Asus EeePC

Palveluntarjoaja
Suncomet

Davis VP2

Cumulus

Asus EeePC

Suncomet